Hillsboro, New Mexico
Current Conditions -  °F | °C
As of 1:53 AM on Monday 20 Oct 2014 (Local Time) from KTCS Reporting Station
Light Rain Light Rain  
Wind Chill: 55°   Ceiling: 7000
Heat Index: 55°   Visibility: 10mi
Dew Point: 51°   Wind: 9mph
Humidity: 86%   Direction: 310°NW
Pressure: 30.15"   Gusts: NA
Location:  32.92°N, 107.57°W
Report Text: KTCS 200753Z AUTO 31008KT 10SM -RA OVC070 13/11 A3015 RMK AO2 SLP159 P0002 T01280106 TSNO
Loading
Personal Weather Stations






























Interactive Weather Map
Tropical Storm Tracking
New forecast layout! Learn more

10-Day Weather Forecast

Advertisements
Track Severe Weather on mobile